sensor_id;sensor_type;location;lat;lon;timestamp;pressure;altitude;pressure_sealevel;temperature;humidity
11329;BME280;5719;42.714;23.732;2022-12-20T00:00:54;96228.06;;;1.43;90.11
11329;BME280;5719;42.714;23.732;2022-12-20T00:03:21;96237.41;;;1.44;90.59
11329;BME280;5719;42.714;23.732;2022-12-20T00:05:48;96232.28;;;1.46;89.73
11329;BME280;5719;42.714;23.732;2022-12-20T00:08:15;96234.00;;;1.44;90.44
11329;BME280;5719;42.714;23.732;2022-12-20T00:10:44;96235.72;;;1.40;91.89
11329;BME280;5719;42.714;23.732;2022-12-20T00:13:11;96239.16;;;1.36;90.65
11329;BME280;5719;42.714;23.732;2022-12-20T00:15:39;96235.75;;;1.36;90.06
11329;BME280;5719;42.714;23.732;2022-12-20T00:18:07;96240.00;;;1.37;89.83
11329;BME280;5719;42.714;23.732;2022-12-20T00:20:34;96246.81;;;1.38;90.47
11329;BME280;5719;42.714;23.732;2022-12-20T00:23:01;96251.88;;;1.41;90.66
11329;BME280;5719;42.714;23.732;2022-12-20T00:25:28;96242.50;;;1.43;90.97
11329;BME280;5719;42.714;23.732;2022-12-20T00:27:55;96241.66;;;1.44;90.71
11329;BME280;5719;42.714;23.732;2022-12-20T00:30:22;96248.44;;;1.45;90.92
11329;BME280;5719;42.714;23.732;2022-12-20T00:32:48;96249.25;;;1.47;91.18
11329;BME280;5719;42.714;23.732;2022-12-20T00:35:17;96236.56;;;1.42;90.97
11329;BME280;5719;42.714;23.732;2022-12-20T00:37:44;96244.19;;;1.45;91.24
11329;BME280;5719;42.714;23.732;2022-12-20T00:40:11;96245.03;;;1.43;90.85
11329;BME280;5719;42.714;23.732;2022-12-20T00:42:38;96245.94;;;1.36;90.27
11329;BME280;5719;42.714;23.732;2022-12-20T00:45:06;96240.88;;;1.33;89.86
11329;BME280;5719;42.714;23.732;2022-12-20T00:47:33;96247.63;;;1.40;90.67
11329;BME280;5719;42.714;23.732;2022-12-20T00:49:59;96240.84;;;1.39;90.63
11329;BME280;5719;42.714;23.732;2022-12-20T00:52:28;96245.03;;;1.43;90.23
11329;BME280;5719;42.714;23.732;2022-12-20T00:54:54;96240.81;;;1.45;90.56
11329;BME280;5719;42.714;23.732;2022-12-20T00:57:22;96240.78;;;1.43;90.13
11329;BME280;5719;42.714;23.732;2022-12-20T00:59:48;96234.00;;;1.44;90.35
11329;BME280;5719;42.714;23.732;2022-12-20T01:02:15;96234.84;;;1.43;91.20
11329;BME280;5719;42.714;23.732;2022-12-20T01:04:42;96232.38;;;1.38;90.94
11329;BME280;5719;42.714;23.732;2022-12-20T01:07:09;96231.53;;;1.38;91.79
11329;BME280;5719;42.714;23.732;2022-12-20T01:09:38;96241.69;;;1.41;92.22
11329;BME280;5719;42.714;23.732;2022-12-20T01:12:05;96229.78;;;1.41;91.62
11329;BME280;5719;42.714;23.732;2022-12-20T01:14:32;96227.25;;;1.40;93.74
11329;BME280;5719;42.714;23.732;2022-12-20T01:16:59;96234.94;;;1.34;93.05
11329;BME280;5719;42.714;23.732;2022-12-20T01:19:26;96224.78;;;1.29;91.91
11329;BME280;5719;42.714;23.732;2022-12-20T01:21:53;96229.13;;;1.18;90.71
11329;BME280;5719;42.714;23.732;2022-12-20T01:24:20;96219.81;;;1.16;89.31
11329;BME280;5719;42.714;23.732;2022-12-20T01:26:48;96216.44;;;1.12;89.65
11329;BME280;5719;42.714;23.732;2022-12-20T01:29:15;96220.72;;;1.09;90.50
11329;BME280;5719;42.714;23.732;2022-12-20T01:31:43;96208.13;;;0.90;88.15
11329;BME280;5719;42.714;23.732;2022-12-20T01:34:10;96200.63;;;0.69;87.39
11329;BME280;5719;42.714;23.732;2022-12-20T01:36:37;96190.50;;;0.62;87.84
11329;BME280;5719;42.714;23.732;2022-12-20T01:39:06;96198.94;;;0.68;87.21
11329;BME280;5719;42.714;23.732;2022-12-20T01:41:35;96198.91;;;0.70;86.76
11329;BME280;5719;42.714;23.732;2022-12-20T01:47:11;96197.25;;;0.64;89.88
11329;BME280;5719;42.714;23.732;2022-12-20T01:49:41;96189.59;;;0.69;90.61
11329;BME280;5719;42.714;23.732;2022-12-20T01:52:13;96190.44;;;0.66;89.93
11329;BME280;5719;42.714;23.732;2022-12-20T01:54:43;96184.59;;;0.58;90.32
11329;BME280;5719;42.714;23.732;2022-12-20T01:57:15;96200.63;;;0.69;89.73
11329;BME280;5719;42.714;23.732;2022-12-20T01:59:46;96189.56;;;0.72;89.70
11329;BME280;5719;42.714;23.732;2022-12-20T02:02:16;96187.91;;;0.68;89.34
11329;BME280;5719;42.714;23.732;2022-12-20T02:04:43;96179.44;;;0.64;89.80
11329;BME280;5719;42.714;23.732;2022-12-20T02:07:12;96179.41;;;0.67;88.37
11329;BME280;5719;42.714;23.732;2022-12-20T02:09:43;96179.50;;;0.57;88.57
11329;BME280;5719;42.714;23.732;2022-12-20T02:12:12;96170.28;;;0.39;89.11
11329;BME280;5719;42.714;23.732;2022-12-20T02:14:58;96168.59;;;0.35;88.35
11329;BME280;5719;42.714;23.732;2022-12-20T02:17:39;96166.03;;;0.33;89.89
11329;BME280;5719;42.714;23.732;2022-12-20T02:20:35;96161.91;;;0.17;89.73
11329;BME280;5719;42.714;23.732;2022-12-20T02:23:30;96166.22;;;0.02;90.48
11329;BME280;5719;42.714;23.732;2022-12-20T02:26:14;96169.59;;;0.07;90.38
11329;BME280;5719;42.714;23.732;2022-12-20T02:29:01;96160.34;;;-0.11;90.70
11329;BME280;5719;42.714;23.732;2022-12-20T02:31:37;96160.31;;;-0.10;90.43
11329;BME280;5719;42.714;23.732;2022-12-20T02:34:08;96162.88;;;-0.14;91.10
11329;BME280;5719;42.714;23.732;2022-12-20T02:36:36;96159.53;;;-0.19;89.99
11329;BME280;5719;42.714;23.732;2022-12-20T02:39:04;96149.41;;;-0.39;92.02
11329;BME280;5719;42.714;23.732;2022-12-20T02:41:33;96156.22;;;-0.47;92.02
11329;BME280;5719;42.714;23.732;2022-12-20T02:44:04;96162.97;;;-0.43;92.66
11329;BME280;5719;42.714;23.732;2022-12-20T02:46:53;96157.88;;;-0.38;91.90
11329;BME280;5719;42.714;23.732;2022-12-20T02:49:25;96156.16;;;-0.36;90.89
11329;BME280;5719;42.714;23.732;2022-12-20T02:51:55;96157.91;;;-0.44;90.41
11329;BME280;5719;42.714;23.732;2022-12-20T02:54:23;96155.41;;;-0.55;91.25
11329;BME280;5719;42.714;23.732;2022-12-20T02:56:54;96142.69;;;-0.54;91.24
11329;BME280;5719;42.714;23.732;2022-12-20T02:59:26;96148.63;;;-0.56;92.72
11329;BME280;5719;42.714;23.732;2022-12-20T03:01:56;96146.94;;;-0.51;92.12
11329;BME280;5719;42.714;23.732;2022-12-20T03:04:25;96152.03;;;-0.69;93.00
11329;BME280;5719;42.714;23.732;2022-12-20T03:07:00;96146.94;;;-0.51;93.61
11329;BME280;5719;42.714;23.732;2022-12-20T03:09:27;96151.94;;;-0.36;92.95
11329;BME280;5719;42.714;23.732;2022-12-20T03:11:55;96142.69;;;-0.44;90.83
11329;BME280;5719;42.714;23.732;2022-12-20T03:14:22;96135.06;;;-0.51;91.54
11329;BME280;5719;42.714;23.732;2022-12-20T03:16:51;96146.91;;;-0.40;91.95
11329;BME280;5719;42.714;23.732;2022-12-20T03:19:19;96146.84;;;-0.31;91.35
11329;BME280;5719;42.714;23.732;2022-12-20T03:21:46;96150.25;;;-0.31;90.69
11329;BME280;5719;42.714;23.732;2022-12-20T03:24:13;96143.47;;;-0.35;88.59
11329;BME280;5719;42.714;23.732;2022-12-20T03:26:40;96142.69;;;-0.57;91.20
11329;BME280;5719;42.714;23.732;2022-12-20T03:29:08;96148.63;;;-0.53;90.36
11329;BME280;5719;42.714;23.732;2022-12-20T03:31:35;96153.69;;;-0.53;90.65
11329;BME280;5719;42.714;23.732;2022-12-20T03:34:02;96152.00;;;-0.51;90.22
11329;BME280;5719;42.714;23.732;2022-12-20T03:36:31;96152.00;;;-0.51;90.18
11329;BME280;5719;42.714;23.732;2022-12-20T03:38:59;96150.31;;;-0.55;90.26
11329;BME280;5719;42.714;23.732;2022-12-20T03:41:26;96135.09;;;-0.55;90.78
11329;BME280;5719;42.714;23.732;2022-12-20T03:43:53;96141.00;;;-0.56;91.38
11329;BME280;5719;42.714;23.732;2022-12-20T03:46:20;96146.06;;;-0.55;90.77
11329;BME280;5719;42.714;23.732;2022-12-20T03:48:47;96152.00;;;-0.48;90.70
11329;BME280;5719;42.714;23.732;2022-12-20T03:51:14;96142.69;;;-0.44;89.50
11329;BME280;5719;42.714;23.732;2022-12-20T03:53:42;96152.81;;;-0.37;89.94
11329;BME280;5719;42.714;23.732;2022-12-20T03:56:09;96145.19;;;-0.38;89.43
11329;BME280;5719;42.714;23.732;2022-12-20T03:58:36;96138.38;;;-0.30;88.83
11329;BME280;5719;42.714;23.732;2022-12-20T04:01:16;96138.38;;;-0.30;88.97
11329;BME280;5719;42.714;23.732;2022-12-20T04:03:42;96135.84;;;-0.36;88.68
11329;BME280;5719;42.714;23.732;2022-12-20T04:06:09;96130.78;;;-0.36;88.76
11329;BME280;5719;42.714;23.732;2022-12-20T04:08:36;96131.63;;;-0.33;88.23
11329;BME280;5719;42.714;23.732;2022-12-20T04:11:05;96123.19;;;-0.41;87.94
11329;BME280;5719;42.714;23.732;2022-12-20T04:13:45;96129.94;;;-0.37;87.66
11329;BME280;5719;42.714;23.732;2022-12-20T04:16:13;96126.56;;;-0.42;88.56
11329;BME280;5719;42.714;23.732;2022-12-20T04:18:41;96127.41;;;-0.41;88.64
11329;BME280;5719;42.714;23.732;2022-12-20T04:21:11;96125.72;;;-0.41;88.25
11329;BME280;5719;42.714;23.732;2022-12-20T04:23:40;96127.41;;;-0.40;90.92
11329;BME280;5719;42.714;23.732;2022-12-20T04:26:09;96129.09;;;-0.39;89.04
11329;BME280;5719;42.714;23.732;2022-12-20T04:28:37;96124.84;;;-0.31;88.09
11329;BME280;5719;42.714;23.732;2022-12-20T04:31:04;96124.81;;;-0.26;87.20
11329;BME280;5719;42.714;23.732;2022-12-20T04:33:31;96123.13;;;-0.26;87.73
11329;BME280;5719;42.714;23.732;2022-12-20T04:35:58;96131.63;;;-0.37;86.41
11329;BME280;5719;42.714;23.732;2022-12-20T04:38:25;96123.19;;;-0.45;87.23
11329;BME280;5719;42.714;23.732;2022-12-20T04:40:53;96130.00;;;-0.55;88.21
11329;BME280;5719;42.714;23.732;2022-12-20T04:43:22;96128.28;;;-0.55;87.89
11329;BME280;5719;42.714;23.732;2022-12-20T04:45:51;96122.38;;;-0.55;87.95
11329;BME280;5719;42.714;23.732;2022-12-20T04:48:18;96127.47;;;-0.52;87.43
11329;BME280;5719;42.714;23.732;2022-12-20T04:50:46;96125.78;;;-0.56;88.25
11329;BME280;5719;42.714;23.732;2022-12-20T04:53:14;96119.84;;;-0.52;87.65
11329;BME280;5719;42.714;23.732;2022-12-20T04:55:58;96129.13;;;-0.48;87.21
11329;BME280;5719;42.714;23.732;2022-12-20T04:58:27;96126.59;;;-0.45;86.84
11329;BME280;5719;42.714;23.732;2022-12-20T05:00:54;96119.78;;;-0.43;86.79
11329;BME280;5719;42.714;23.732;2022-12-20T05:03:23;96124.06;;;-0.51;87.90
11329;BME280;5719;42.714;23.732;2022-12-20T05:05:50;96124.06;;;-0.50;86.95
11329;BME280;5719;42.714;23.732;2022-12-20T05:08:17;96118.13;;;-0.50;85.63
11329;BME280;5719;42.714;23.732;2022-12-20T05:10:44;96113.06;;;-0.58;85.68
11329;BME280;5719;42.714;23.732;2022-12-20T05:13:11;96120.72;;;-0.64;85.52
11329;BME280;5719;42.714;23.732;2022-12-20T05:15:40;96113.13;;;-0.77;85.78
11329;BME280;5719;42.714;23.732;2022-12-20T05:18:07;96117.34;;;-0.76;86.36
11329;BME280;5719;42.714;23.732;2022-12-20T05:20:34;96115.63;;;-0.73;86.03
11329;BME280;5719;42.714;23.732;2022-12-20T05:23:01;96110.56;;;-0.71;86.22
11329;BME280;5719;42.714;23.732;2022-12-20T05:25:48;96115.66;;;-0.70;86.36
11329;BME280;5719;42.714;23.732;2022-12-20T05:28:30;96115.63;;;-0.68;85.96
11329;BME280;5719;42.714;23.732;2022-12-20T05:30:58;96118.22;;;-0.80;85.85
11329;BME280;5719;42.714;23.732;2022-12-20T05:33:25;96115.69;;;-0.80;86.70
11329;BME280;5719;42.714;23.732;2022-12-20T05:35:53;96114.81;;;-0.73;86.24
11329;BME280;5719;42.714;23.732;2022-12-20T05:38:20;96121.56;;;-0.72;85.95
11329;BME280;5719;42.714;23.732;2022-12-20T05:40:48;96124.97;;;-0.73;86.05
11329;BME280;5719;42.714;23.732;2022-12-20T05:43:15;96125.81;;;-0.76;85.82
11329;BME280;5719;42.714;23.732;2022-12-20T05:45:44;96115.63;;;-0.73;86.74
11329;BME280;5719;42.714;23.732;2022-12-20T05:48:13;96130.03;;;-0.70;86.20
11329;BME280;5719;42.714;23.732;2022-12-20T05:50:41;96129.19;;;-0.71;85.66
11329;BME280;5719;42.714;23.732;2022-12-20T05:53:10;96129.19;;;-0.72;85.62
11329;BME280;5719;42.714;23.732;2022-12-20T05:55:37;96127.50;;;-0.79;85.48
11329;BME280;5719;42.714;23.732;2022-12-20T05:58:05;96129.19;;;-0.78;85.64
11329;BME280;5719;42.714;23.732;2022-12-20T06:00:32;96124.94;;;-0.76;86.39
11329;BME280;5719;42.714;23.732;2022-12-20T06:02:59;96130.88;;;-0.74;84.88
11329;BME280;5719;42.714;23.732;2022-12-20T06:05:28;96128.34;;;-0.74;84.73
11329;BME280;5719;42.714;23.732;2022-12-20T06:07:54;96132.59;;;-0.73;84.18
11329;BME280;5719;42.714;23.732;2022-12-20T06:10:21;96122.44;;;-0.78;84.25
11329;BME280;5719;42.714;23.732;2022-12-20T06:12:48;96125.81;;;-0.74;84.51
11329;BME280;5719;42.714;23.732;2022-12-20T06:15:15;96124.97;;;-0.78;85.07
11329;BME280;5719;42.714;23.732;2022-12-20T06:17:42;96126.66;;;-0.74;85.21
11329;BME280;5719;42.714;23.732;2022-12-20T06:20:10;96135.94;;;-0.61;86.81
11329;BME280;5719;42.714;23.732;2022-12-20T06:22:39;96134.19;;;-0.46;86.83
11329;BME280;5719;42.714;23.732;2022-12-20T06:25:06;96129.88;;;-0.25;85.54
11329;BME280;5719;42.714;23.732;2022-12-20T06:27:34;96136.59;;;-0.04;85.13
11329;BME280;5719;42.714;23.732;2022-12-20T06:30:01;96138.25;;;-0.03;85.20
11329;BME280;5719;42.714;23.732;2022-12-20T06:32:27;96143.13;;;0.38;84.23
11329;BME280;5719;42.714;23.732;2022-12-20T06:34:54;96133.75;;;0.49;82.22
11329;BME280;5719;42.714;23.732;2022-12-20T06:37:21;96132.03;;;0.53;83.23
11329;BME280;5719;42.714;23.732;2022-12-20T06:39:50;96127.31;;;1.11;81.73
11329;BME280;5719;42.714;23.732;2022-12-20T06:42:16;96131.09;;;1.59;79.58
11329;BME280;5719;42.714;23.732;2022-12-20T06:44:43;96121.25;;;1.98;77.32
11329;BME280;5719;42.714;23.732;2022-12-20T06:47:11;96120.72;;;2.39;75.97
11329;BME280;5719;42.714;23.732;2022-12-20T06:49:38;96111.50;;;2.87;73.04
11329;BME280;5719;42.714;23.732;2022-12-20T06:52:05;96109.06;;;3.29;69.49
11329;BME280;5719;42.714;23.732;2022-12-20T06:54:31;96109.09;;;3.72;66.84
11329;BME280;5719;42.714;23.732;2022-12-20T06:57:00;96114.16;;;4.18;66.07
11329;BME280;5719;42.714;23.732;2022-12-20T06:59:27;96113.22;;;4.60;63.85
11329;BME280;5719;42.714;23.732;2022-12-20T07:01:54;96107.09;;;5.03;62.57
11329;BME280;5719;42.714;23.732;2022-12-20T07:04:21;96106.41;;;5.30;59.81
11329;BME280;5719;42.714;23.732;2022-12-20T07:06:47;96104.09;;;5.53;60.01
11329;BME280;5719;42.714;23.732;2022-12-20T07:09:15;96107.28;;;5.94;57.62
11329;BME280;5719;42.714;23.732;2022-12-20T07:11:42;96108.75;;;6.02;55.22
11329;BME280;5719;42.714;23.732;2022-12-20T07:14:10;96113.25;;;5.94;55.56
11329;BME280;5719;42.714;23.732;2022-12-20T07:16:37;96107.78;;;6.06;54.94
11329;BME280;5719;42.714;23.732;2022-12-20T07:19:05;96111.63;;;6.50;54.47
11329;BME280;5719;42.714;23.732;2022-12-20T07:21:32;96111.38;;;6.85;55.10
11329;BME280;5719;42.714;23.732;2022-12-20T07:24:00;96100.56;;;7.02;53.14
11329;BME280;5719;42.714;23.732;2022-12-20T07:26:27;96105.97;;;7.46;51.95
11329;BME280;5719;42.714;23.732;2022-12-20T07:28:54;96099.34;;;7.14;51.89
11329;BME280;5719;42.714;23.732;2022-12-20T07:31:23;96104.44;;;6.61;53.14
11329;BME280;5719;42.714;23.732;2022-12-20T07:33:50;96095.06;;;7.39;52.36
11329;BME280;5719;42.714;23.732;2022-12-20T07:36:17;96091.53;;;7.66;50.96
11329;BME280;5719;42.714;23.732;2022-12-20T07:38:44;96089.22;;;8.07;50.04
11329;BME280;5719;42.714;23.732;2022-12-20T07:41:12;96089.34;;;8.50;47.26
11329;BME280;5719;42.714;23.732;2022-12-20T07:43:39;96092.75;;;8.51;48.76
11329;BME280;5719;42.714;23.732;2022-12-20T07:46:07;96084.88;;;9.19;46.65
11329;BME280;5719;42.714;23.732;2022-12-20T07:48:37;96079.78;;;9.78;45.36
11329;BME280;5719;42.714;23.732;2022-12-20T07:51:05;96082.34;;;10.37;44.10
11329;BME280;5719;42.714;23.732;2022-12-20T07:53:36;96085.00;;;10.54;43.11
11329;BME280;5719;42.714;23.732;2022-12-20T07:56:07;96074.59;;;10.92;41.98
11329;BME280;5719;42.714;23.732;2022-12-20T07:58:36;96083.34;;;11.25;41.26
11329;BME280;5719;42.714;23.732;2022-12-20T08:01:05;96072.03;;;11.26;40.46
11329;BME280;5719;42.714;23.732;2022-12-20T08:03:39;96083.72;;;11.69;39.98
11329;BME280;5719;42.714;23.732;2022-12-20T08:06:08;96076.56;;;11.74;40.21
11329;BME280;5719;42.714;23.732;2022-12-20T08:08:37;96076.41;;;11.94;39.58
11329;BME280;5719;42.714;23.732;2022-12-20T08:11:07;96071.72;;;12.01;38.86
11329;BME280;5719;42.714;23.732;2022-12-20T08:13:36;96072.28;;;12.39;38.60
11329;BME280;5719;42.714;23.732;2022-12-20T08:16:04;96069.69;;;11.56;39.11
11329;BME280;5719;42.714;23.732;2022-12-20T08:18:31;96079.00;;;11.77;38.81
11329;BME280;5719;42.714;23.732;2022-12-20T08:20:59;96073.81;;;11.94;38.37
11329;BME280;5719;42.714;23.732;2022-12-20T08:23:26;96060.47;;;12.17;38.02
11329;BME280;5719;42.714;23.732;2022-12-20T08:25:53;96061.19;;;12.52;37.68
11329;BME280;5719;42.714;23.732;2022-12-20T08:28:20;96058.56;;;12.84;37.08
11329;BME280;5719;42.714;23.732;2022-12-20T08:30:48;96059.25;;;13.18;35.85
11329;BME280;5719;42.714;23.732;2022-12-20T08:33:15;96053.28;;;13.46;35.60
11329;BME280;5719;42.714;23.732;2022-12-20T08:35:42;96053.53;;;13.71;35.21
11329;BME280;5719;42.714;23.732;2022-12-20T08:38:10;96050.56;;;13.92;34.77
11329;BME280;5719;42.714;23.732;2022-12-20T08:40:37;96058.19;;;14.09;33.75
11329;BME280;5719;42.714;23.732;2022-12-20T08:43:04;96056.88;;;14.30;33.51
11329;BME280;5719;42.714;23.732;2022-12-20T08:45:31;96052.50;;;14.59;32.54
11329;BME280;5719;42.714;23.732;2022-12-20T08:47:58;96040.09;;;14.77;32.86
11329;BME280;5719;42.714;23.732;2022-12-20T08:50:25;96039.56;;;14.98;32.42
11329;BME280;5719;42.714;23.732;2022-12-20T08:52:52;96045.34;;;15.03;31.89
11329;BME280;5719;42.714;23.732;2022-12-20T08:55:21;96039.63;;;15.11;31.45
11329;BME280;5719;42.714;23.732;2022-12-20T08:57:48;96038.94;;;15.21;31.37
11329;BME280;5719;42.714;23.732;2022-12-20T09:00:15;96039.28;;;15.42;30.75
11329;BME280;5719;42.714;23.732;2022-12-20T09:02:42;96036.88;;;15.66;29.81
11329;BME280;5719;42.714;23.732;2022-12-20T09:05:09;96029.91;;;15.92;29.85
11329;BME280;5719;42.714;23.732;2022-12-20T09:07:36;96031.13;;;16.11;29.56
11329;BME280;5719;42.714;23.732;2022-12-20T09:10:04;96024.13;;;16.25;29.81
11329;BME280;5719;42.714;23.732;2022-12-20T09:12:35;96020.41;;;16.40;29.35
11329;BME280;5719;42.714;23.732;2022-12-20T09:15:02;96013.75;;;16.61;29.27
11329;BME280;5719;42.714;23.732;2022-12-20T09:17:29;96008.13;;;16.78;28.79
11329;BME280;5719;42.714;23.732;2022-12-20T09:19:56;96008.13;;;16.78;29.13
11329;BME280;5719;42.714;23.732;2022-12-20T09:22:23;96000.78;;;16.59;29.40
11329;BME280;5719;42.714;23.732;2022-12-20T09:24:50;96000.06;;;17.05;28.48
11329;BME280;5719;42.714;23.732;2022-12-20T09:27:16;95993.16;;;17.28;27.89
11329;BME280;5719;42.714;23.732;2022-12-20T09:29:45;95999.78;;;17.55;27.46
11329;BME280;5719;42.714;23.732;2022-12-20T09:32:12;95983.47;;;17.41;27.60
11329;BME280;5719;42.714;23.732;2022-12-20T09:34:38;95994.53;;;17.44;27.68
11329;BME280;5719;42.714;23.732;2022-12-20T09:37:05;95985.34;;;17.74;27.37
11329;BME280;5719;42.714;23.732;2022-12-20T09:39:32;95983.69;;;17.95;27.03
11329;BME280;5719;42.714;23.732;2022-12-20T09:41:59;95976.91;;;18.14;26.77
11329;BME280;5719;42.714;23.732;2022-12-20T09:44:29;95979.53;;;18.26;26.43
11329;BME280;5719;42.714;23.732;2022-12-20T09:47:00;95974.44;;;18.13;26.64
11329;BME280;5719;42.714;23.732;2022-12-20T09:49:33;95966.31;;;17.83;26.82
11329;BME280;5719;42.714;23.732;2022-12-20T09:52:24;95965.38;;;17.73;25.97
11329;BME280;5719;42.714;23.732;2022-12-20T09:55:04;95967.63;;;18.22;26.05
11329;BME280;5719;42.714;23.732;2022-12-20T09:57:42;95955.34;;;18.44;25.79
11329;BME280;5719;42.714;23.732;2022-12-20T10:00:15;95942.13;;;18.46;25.28
11329;BME280;5719;42.714;23.732;2022-12-20T10:02:44;95940.72;;;18.53;25.12
11329;BME280;5719;42.714;23.732;2022-12-20T10:05:13;95942.75;;;17.60;25.49
11329;BME280;5719;42.714;23.732;2022-12-20T10:07:47;95924.94;;;17.31;27.08
11329;BME280;5719;42.714;23.732;2022-12-20T10:13:18;95918.03;;;18.09;25.78
11329;BME280;5719;42.714;23.732;2022-12-20T10:15:51;95927.56;;;18.10;26.27
11329;BME280;5719;42.714;23.732;2022-12-20T10:18:30;95906.94;;;16.93;26.74
11329;BME280;5719;42.714;23.732;2022-12-20T10:21:05;95917.72;;;17.45;26.75
11329;BME280;5719;42.714;23.732;2022-12-20T10:23:39;95908.97;;;18.24;25.75
11329;BME280;5719;42.714;23.732;2022-12-20T10:26:09;95901.59;;;18.83;25.45
11329;BME280;5719;42.714;23.732;2022-12-20T10:28:36;95899.38;;;19.41;24.65
11329;BME280;5719;42.714;23.732;2022-12-20T10:31:06;95903.88;;;19.39;24.67
11329;BME280;5719;42.714;23.732;2022-12-20T10:33:34;95892.53;;;19.49;24.49
11329;BME280;5719;42.714;23.732;2022-12-20T10:36:18;95882.28;;;19.26;24.39
11329;BME280;5719;42.714;23.732;2022-12-20T10:38:47;95879.72;;;19.35;24.68
11329;BME280;5719;42.714;23.732;2022-12-20T10:41:17;95868.81;;;19.51;24.16
11329;BME280;5719;42.714;23.732;2022-12-20T10:43:47;95860.59;;;19.75;24.46
11329;BME280;5719;42.714;23.732;2022-12-20T10:46:15;95850.53;;;19.70;23.42
11329;BME280;5719;42.714;23.732;2022-12-20T10:48:45;95849.59;;;19.81;24.57
11329;BME280;5719;42.714;23.732;2022-12-20T10:51:15;95851.78;;;19.45;24.46
11329;BME280;5719;42.714;23.732;2022-12-20T10:53:51;95838.97;;;18.26;26.13
11329;BME280;5719;42.714;23.732;2022-12-20T10:56:20;95821.97;;;17.44;26.65
11329;BME280;5719;42.714;23.732;2022-12-20T10:58:52;95834.78;;;16.68;27.64
11329;BME280;5719;42.714;23.732;2022-12-20T11:01:21;95833.28;;;16.05;28.20
11329;BME280;5719;42.714;23.732;2022-12-20T11:04:01;95842.88;;;14.67;30.21
11329;BME280;5719;42.714;23.732;2022-12-20T11:06:40;95831.75;;;14.91;29.48
11329;BME280;5719;42.714;23.732;2022-12-20T11:09:28;95827.78;;;15.23;29.38
11329;BME280;5719;42.714;23.732;2022-12-20T11:11:57;95820.56;;;15.77;27.86
11329;BME280;5719;42.714;23.732;2022-12-20T11:14:25;95819.44;;;15.05;29.05
11329;BME280;5719;42.714;23.732;2022-12-20T11:16:54;95804.28;;;12.68;31.54
11329;BME280;5719;42.714;23.732;2022-12-20T11:19:45;95807.84;;;13.93;30.29
11329;BME280;5719;42.714;23.732;2022-12-20T11:22:30;95803.72;;;14.56;29.53
11329;BME280;5719;42.714;23.732;2022-12-20T11:25:10;95800.34;;;14.54;27.92
11329;BME280;5719;42.714;23.732;2022-12-20T11:27:49;95787.47;;;13.99;29.78
11329;BME280;5719;42.714;23.732;2022-12-20T11:30:21;95795.16;;;13.19;31.13
11329;BME280;5719;42.714;23.732;2022-12-20T11:32:58;95793.78;;;13.27;31.42
11329;BME280;5719;42.714;23.732;2022-12-20T11:35:39;95773.00;;;14.22;29.20
11329;BME280;5719;42.714;23.732;2022-12-20T11:38:14;95789.97;;;15.05;28.35
11329;BME280;5719;42.714;23.732;2022-12-20T11:40:51;95785.38;;;15.08;28.08
11329;BME280;5719;42.714;23.732;2022-12-20T11:43:30;95775.47;;;15.75;26.66
11329;BME280;5719;42.714;23.732;2022-12-20T11:46:10;95765.66;;;15.79;26.69
11329;BME280;5719;42.714;23.732;2022-12-20T11:48:57;95765.63;;;15.91;26.83
11329;BME280;5719;42.714;23.732;2022-12-20T11:51:34;95756.75;;;14.06;27.95
11329;BME280;5719;42.714;23.732;2022-12-20T11:54:08;95758.22;;;14.75;27.93
11329;BME280;5719;42.714;23.732;2022-12-20T11:56:37;95756.88;;;13.90;29.68
11329;BME280;5719;42.714;23.732;2022-12-20T11:59:11;95742.78;;;15.22;27.61
11329;BME280;5719;42.714;23.732;2022-12-20T12:01:44;95757.34;;;14.36;29.02
11329;BME280;5719;42.714;23.732;2022-12-20T12:04:17;95750.47;;;13.00;30.98
11329;BME280;5719;42.714;23.732;2022-12-20T12:06:51;95746.41;;;13.65;29.99
11329;BME280;5719;42.714;23.732;2022-12-20T12:09:24;95747.88;;;13.00;31.10
11329;BME280;5719;42.714;23.732;2022-12-20T12:12:00;95741.16;;;13.38;30.42
11329;BME280;5719;42.714;23.732;2022-12-20T12:14:34;95740.81;;;13.02;31.14
11329;BME280;5719;42.714;23.732;2022-12-20T12:17:08;95742.19;;;11.46;33.55
11329;BME280;5719;42.714;23.732;2022-12-20T12:19:42;95727.91;;;12.29;33.13
11329;BME280;5719;42.714;23.732;2022-12-20T12:22:16;95728.72;;;12.16;33.61
11329;BME280;5719;42.714;23.732;2022-12-20T12:24:48;95729.34;;;11.75;33.75
11329;BME280;5719;42.714;23.732;2022-12-20T12:27:21;95724.47;;;12.29;33.98
11329;BME280;5719;42.714;23.732;2022-12-20T12:29:49;95730.19;;;12.92;32.59
11329;BME280;5719;42.714;23.732;2022-12-20T12:32:23;95716.72;;;13.28;32.63
11329;BME280;5719;42.714;23.732;2022-12-20T12:35:03;95721.38;;;12.81;32.77
11329;BME280;5719;42.714;23.732;2022-12-20T12:37:44;95721.94;;;13.00;33.37
11329;BME280;5719;42.714;23.732;2022-12-20T12:43:48;95722.34;;;12.36;34.46
11329;BME280;5719;42.714;23.732;2022-12-20T12:46:19;95728.28;;;10.68;36.57
11329;BME280;5719;42.714;23.732;2022-12-20T12:48:53;95717.94;;;11.62;36.15
11329;BME280;5719;42.714;23.732;2022-12-20T12:51:26;95717.97;;;12.08;35.71
11329;BME280;5719;42.714;23.732;2022-12-20T12:54:11;95707.28;;;12.42;35.21
11329;BME280;5719;42.714;23.732;2022-12-20T12:56:41;95724.75;;;13.38;33.49
11329;BME280;5719;42.714;23.732;2022-12-20T12:59:40;95724.63;;;13.53;33.05
11329;BME280;5719;42.714;23.732;2022-12-20T13:02:50;95735.91;;;12.11;34.51
11329;BME280;5719;42.714;23.732;2022-12-20T13:05:33;95729.94;;;9.85;38.48
11329;BME280;5719;42.714;23.732;2022-12-20T13:08:01;95728.91;;;9.53;40.23
11329;BME280;5719;42.714;23.732;2022-12-20T13:10:56;95723.28;;;10.65;38.85
11329;BME280;5719;42.714;23.732;2022-12-20T13:13:24;95718.50;;;11.22;38.32
11329;BME280;5719;42.714;23.732;2022-12-20T13:16:10;95720.81;;;11.26;37.66
11329;BME280;5719;42.714;23.732;2022-12-20T13:18:37;95718.47;;;10.91;38.27
11329;BME280;5719;42.714;23.732;2022-12-20T13:21:30;95715.94;;;11.52;37.76
11329;BME280;5719;42.714;23.732;2022-12-20T13:27:30;95709.97;;;11.04;37.94
11329;BME280;5719;42.714;23.732;2022-12-20T13:33:16;95713.44;;;9.88;40.49
11329;BME280;5719;42.714;23.732;2022-12-20T13:36:28;95703.19;;;10.38;38.82